Holly Pond, Alabama
Current Conditions -  °F | °C
As of 11:55 AM on Monday 24 Nov 2014 (Local Time) from KCMD Reporting Station
Clear Clear  
Wind Chill: 17°   Ceiling: Unl
Heat Index: 17°   Visibility: 10mi
Dew Point:   Wind: 9mph
Humidity: 54%   Direction: 250°WSW
Pressure: 29.83"   Gusts: NA
Location:  34.17°N, 86.62°W
Report Text: KCMD 241755Z AUTO 25008KT 210V290 10SM CLR 17/07 A2983 RMK AO2 T01690074
Loading
Personal Weather Stations






























Interactive Weather Map New forecast layout! Learn more

10-Day Weather Forecast

Advertisements
Track Severe Weather on mobile